createdAt,value
2022-08-22T00:00:38.033Z,24.60
2022-08-22T00:03:07.176Z,24.90
2022-08-22T00:03:07.364Z,24.60
2022-08-22T00:06:09.837Z,24.70
2022-08-22T00:09:11.579Z,24.60
2022-08-22T00:11:49.521Z,24.60
2022-08-22T00:14:40.192Z,24.70
2022-08-22T00:17:35.611Z,24.80
2022-08-22T00:20:17.221Z,24.70
2022-08-22T00:23:05.159Z,24.80
2022-08-22T00:25:40.125Z,24.80
2022-08-22T00:28:40.295Z,24.90
2022-08-22T00:31:21.985Z,24.90
2022-08-22T00:33:58.668Z,24.80
2022-08-22T00:36:47.951Z,24.70
2022-08-22T00:39:36.756Z,24.70
2022-08-22T00:42:40.052Z,24.60
2022-08-22T00:45:33.754Z,24.60
2022-08-22T00:48:14.345Z,24.50
2022-08-22T00:50:51.921Z,24.50
2022-08-22T00:53:45.928Z,24.60
2022-08-22T00:56:24.509Z,24.50
2022-08-22T00:59:17.951Z,24.60
2022-08-22T01:02:14.115Z,24.50
2022-08-22T01:04:50.957Z,24.50
2022-08-22T01:07:39.343Z,24.50
2022-08-22T01:10:49.426Z,24.50
2022-08-22T01:13:53.430Z,24.50
2022-08-22T01:16:41.036Z,24.50
2022-08-22T01:19:27.381Z,24.50
2022-08-22T01:22:27.762Z,24.50
2022-08-22T01:25:31.688Z,24.50
2022-08-22T01:28:33.604Z,24.50
2022-08-22T01:31:40.519Z,24.50
2022-08-22T01:34:36.346Z,24.50
2022-08-22T01:37:19.735Z,24.50
2022-08-22T01:40:24.721Z,24.50
2022-08-22T01:43:04.575Z,24.50
2022-08-22T01:46:08.780Z,24.50
2022-08-22T01:48:51.906Z,24.50
2022-08-22T01:51:40.980Z,24.50
2022-08-22T01:54:32.650Z,24.50
2022-08-22T01:57:02.917Z,24.60
2022-08-22T01:59:42.123Z,24.60
2022-08-22T02:02:36.360Z,24.50
2022-08-22T02:05:18.555Z,24.50
2022-08-22T02:08:03.521Z,24.50
2022-08-22T02:10:45.737Z,24.40
2022-08-22T02:13:12.931Z,24.40
2022-08-22T02:15:39.758Z,24.50
2022-08-22T02:18:06.337Z,24.50
2022-08-22T02:20:40.519Z,24.50
2022-08-22T02:23:48.983Z,24.40
2022-08-22T02:26:23.564Z,24.40
2022-08-22T02:29:21.370Z,24.40
2022-08-22T02:32:00.805Z,24.40
2022-08-22T02:34:57.502Z,24.40
2022-08-22T02:37:39.669Z,24.40
2022-08-22T02:40:32.026Z,24.30
2022-08-22T02:43:30.446Z,24.40
2022-08-22T02:46:15.251Z,24.50
2022-08-22T02:48:53.344Z,24.40
2022-08-22T02:51:32.039Z,24.40
2022-08-22T02:54:27.683Z,24.30
2022-08-22T02:57:14.221Z,24.30
2022-08-22T03:00:27.781Z,24.40
2022-08-22T03:03:04.856Z,24.30
2022-08-22T03:05:37.570Z,24.30
2022-08-22T03:08:26.856Z,24.30
2022-08-22T03:11:19.505Z,24.30
2022-08-22T03:14:11.660Z,24.30
2022-08-22T03:16:45.682Z,24.30
2022-08-22T03:19:28.037Z,24.30
2022-08-22T03:22:05.317Z,24.30
2022-08-22T03:24:40.842Z,24.30
2022-08-22T03:27:31.390Z,24.30
2022-08-22T03:30:23.505Z,24.30
2022-08-22T03:32:52.876Z,24.30
2022-08-22T03:35:49.032Z,24.40
2022-08-22T03:39:14.941Z,24.40
2022-08-22T03:42:16.049Z,24.40
2022-08-22T03:45:07.122Z,24.30
2022-08-22T03:47:51.345Z,24.30
2022-08-22T03:50:46.300Z,24.20
2022-08-22T03:53:46.389Z,24.20
2022-08-22T03:56:40.812Z,24.20
2022-08-22T03:59:16.838Z,24.20
2022-08-22T04:02:43.167Z,24.20
2022-08-22T04:05:33.605Z,24.20
2022-08-22T04:08:45.857Z,24.20
2022-08-22T04:11:49.124Z,24.20
2022-08-22T04:14:49.770Z,24.20
2022-08-22T04:18:00.644Z,24.20
2022-08-22T04:21:01.581Z,24.20
2022-08-22T04:24:05.996Z,24.20
2022-08-22T04:26:41.467Z,24.20
2022-08-22T04:29:23.458Z,24.20
2022-08-22T04:32:18.703Z,24.20
2022-08-22T04:35:02.842Z,24.20
2022-08-22T04:37:52.331Z,24.20
2022-08-22T04:40:37.154Z,24.20
2022-08-22T04:43:34.892Z,24.20
2022-08-22T04:46:08.190Z,24.20
2022-08-22T04:48:38.992Z,24.20
2022-08-22T04:51:24.463Z,24.20
2022-08-22T04:54:25.311Z,24.10
2022-08-22T04:57:10.496Z,24.10
2022-08-22T04:59:37.527Z,24.10
2022-08-22T05:02:09.098Z,24.10
2022-08-22T05:04:44.304Z,24.10
2022-08-22T05:07:21.965Z,24.10
2022-08-22T05:09:56.412Z,24.20
2022-08-22T05:12:31.817Z,24.20
2022-08-22T05:15:16.176Z,24.20
2022-08-22T05:17:51.815Z,24.20
2022-08-22T05:20:22.828Z,24.20
2022-08-22T05:22:54.006Z,24.20
2022-08-22T05:25:28.442Z,24.30
2022-08-22T05:28:11.868Z,24.40
2022-08-22T05:30:39.673Z,24.30
2022-08-22T05:33:27.422Z,24.30
2022-08-22T05:36:00.988Z,24.20
2022-08-22T05:38:34.457Z,24.20
2022-08-22T05:41:16.934Z,24.20
2022-08-22T05:43:45.106Z,24.20
2022-08-22T05:46:20.321Z,24.20
2022-08-22T05:48:58.108Z,24.20
2022-08-22T05:51:34.447Z,24.20
2022-08-22T05:54:14.246Z,24.30
2022-08-22T05:57:09.729Z,24.30
2022-08-22T05:59:41.642Z,24.30
2022-08-22T06:02:18.583Z,24.40
2022-08-22T06:04:58.601Z,24.30
2022-08-22T06:07:35.307Z,24.50
2022-08-22T06:10:05.919Z,24.50
2022-08-22T06:12:43.175Z,24.50
2022-08-22T06:15:37.452Z,24.40
2022-08-22T06:18:12.744Z,24.30
2022-08-22T06:20:49.261Z,24.40
2022-08-22T06:23:27.572Z,24.30
2022-08-22T06:25:58.665Z,24.30
2022-08-22T06:28:33.617Z,24.50
2022-08-22T06:31:03.412Z,24.50
2022-08-22T06:33:34.799Z,24.50
2022-08-22T06:36:26.180Z,24.40
2022-08-22T06:39:02.757Z,24.40
2022-08-22T06:41:31.798Z,24.50
2022-08-22T06:44:00.012Z,24.50
2022-08-22T06:46:29.197Z,24.50
2022-08-22T06:49:00.290Z,24.40
2022-08-22T06:51:29.101Z,24.50
2022-08-22T06:54:01.504Z,24.50
2022-08-22T06:56:40.406Z,24.50
2022-08-22T06:59:17.079Z,24.70
2022-08-22T07:01:58.278Z,24.70
2022-08-22T07:04:26.772Z,24.50
2022-08-22T07:06:56.498Z,24.60
2022-08-22T07:09:28.206Z,24.50
2022-08-22T07:11:57.636Z,24.60
2022-08-22T07:14:33.116Z,24.60
2022-08-22T07:17:04.420Z,24.60
2022-08-22T07:19:38.725Z,24.60
2022-08-22T07:22:24.145Z,24.70
2022-08-22T07:25:04.693Z,24.70
2022-08-22T07:28:00.255Z,24.80
2022-08-22T07:30:41.627Z,24.70
2022-08-22T07:33:27.067Z,24.80
2022-08-22T07:36:05.720Z,24.70
2022-08-22T07:38:43.718Z,24.70
2022-08-22T07:41:19.984Z,24.70
2022-08-22T07:43:57.974Z,24.60
2022-08-22T07:46:27.481Z,24.70
2022-08-22T07:49:10.837Z,24.70
2022-08-22T07:51:46.196Z,24.70
2022-08-22T07:54:27.141Z,24.70
2022-08-22T07:57:07.085Z,24.70
2022-08-22T07:59:37.096Z,24.70
2022-08-22T08:02:09.348Z,24.70
2022-08-22T08:04:40.253Z,24.70
2022-08-22T08:07:09.965Z,24.70
2022-08-22T08:10:02.565Z,24.80
2022-08-22T08:12:40.051Z,24.90
2022-08-22T08:15:14.522Z,24.90
2022-08-22T08:17:43.041Z,24.90
2022-08-22T08:20:13.671Z,25.00
2022-08-22T08:22:44.072Z,25.00
2022-08-22T08:25:15.878Z,24.90
2022-08-22T08:28:01.687Z,25.00
2022-08-22T08:30:53.219Z,24.90
2022-08-22T08:33:26.303Z,25.00
2022-08-22T08:36:02.775Z,24.90
2022-08-22T08:38:36.870Z,24.80
2022-08-22T08:41:43.905Z,24.80
2022-08-22T08:44:20.046Z,24.80
2022-08-22T08:47:19.822Z,24.90
2022-08-22T08:50:15.592Z,24.90
2022-08-22T08:52:58.306Z,24.90
2022-08-22T08:55:44.918Z,24.80
2022-08-22T08:58:24.030Z,24.80
2022-08-22T09:01:02.670Z,24.90
2022-08-22T09:03:47.567Z,25.00
2022-08-22T09:06:34.481Z,25.00
2022-08-22T09:09:23.253Z,25.00
2022-08-22T09:12:17.519Z,25.00
2022-08-22T09:18:11.439Z,24.90
2022-08-22T09:21:12.011Z,25.00
2022-08-22T09:23:58.635Z,24.80
2022-08-22T09:26:29.320Z,24.90
2022-08-22T09:29:19.210Z,25.00
2022-08-22T09:32:33.710Z,25.00
2022-08-22T09:35:22.379Z,25.00
2022-08-22T09:38:25.405Z,25.00
2022-08-22T09:40:16.117Z,24.80
2022-08-22T09:41:10.267Z,25.00
2022-08-22T09:44:02.386Z,25.00
2022-08-22T09:46:47.171Z,25.00
2022-08-22T09:49:28.157Z,25.00
2022-08-22T09:52:33.298Z,25.10
2022-08-22T09:55:39.114Z,25.00
2022-08-22T09:58:25.636Z,25.10
2022-08-22T10:01:11.107Z,25.10
2022-08-22T10:04:19.536Z,25.10
2022-08-22T10:07:11.634Z,25.10
2022-08-22T10:10:15.621Z,25.00
2022-08-22T10:13:10.265Z,25.00
2022-08-22T10:15:47.448Z,25.10
2022-08-22T10:18:52.832Z,25.10
2022-08-22T10:21:37.556Z,25.10
2022-08-22T10:24:47.145Z,25.10
2022-08-22T10:27:18.143Z,25.10
2022-08-22T10:30:04.884Z,25.10
2022-08-22T10:32:38.857Z,25.10
2022-08-22T10:35:27.156Z,25.10
2022-08-22T10:38:13.073Z,25.10
2022-08-22T10:40:41.989Z,25.20
2022-08-22T10:43:39.176Z,25.30
2022-08-22T10:46:15.510Z,25.30
2022-08-22T10:48:52.291Z,25.30
2022-08-22T10:51:43.398Z,25.30
2022-08-22T10:54:51.426Z,25.30
2022-08-22T10:57:24.092Z,25.50
2022-08-22T11:00:12.712Z,25.40
2022-08-22T11:03:02.311Z,25.40
2022-08-22T11:05:44.431Z,25.30
2022-08-22T11:08:21.205Z,25.30
2022-08-22T11:11:05.316Z,25.20
2022-08-22T11:13:49.702Z,25.30
2022-08-22T11:16:36.534Z,25.30
2022-08-22T11:19:26.320Z,25.40
2022-08-22T11:22:20.348Z,25.40
2022-08-22T11:25:28.651Z,25.30
2022-08-22T11:28:18.016Z,25.40
2022-08-22T11:31:19.821Z,25.30
2022-08-22T11:34:20.567Z,25.20
2022-08-22T11:37:11.124Z,25.20
2022-08-22T11:40:00.741Z,25.10
2022-08-22T11:42:38.136Z,25.10
2022-08-22T11:45:21.525Z,25.10
2022-08-22T11:48:00.446Z,25.10
2022-08-22T11:50:42.016Z,25.10
2022-08-22T11:53:24.139Z,25.10
2022-08-22T11:56:05.545Z,25.10
2022-08-22T11:58:42.749Z,25.20
2022-08-22T12:01:18.572Z,25.10
2022-08-22T12:04:18.149Z,25.10
2022-08-22T12:07:13.719Z,25.10
2022-08-22T12:10:01.109Z,25.10
2022-08-22T12:12:55.305Z,25.20
2022-08-22T12:15:28.933Z,25.10
2022-08-22T12:18:05.912Z,25.10
2022-08-22T12:20:59.105Z,25.00
2022-08-22T12:24:19.315Z,25.00
2022-08-22T12:27:29.039Z,25.00
2022-08-22T12:30:17.056Z,25.00
2022-08-22T12:33:10.502Z,25.00
2022-08-22T12:36:18.074Z,25.00
2022-08-22T12:38:57.168Z,25.00
2022-08-22T12:41:48.314Z,25.00
2022-08-22T12:44:33.343Z,25.10
2022-08-22T12:47:31.982Z,25.10
2022-08-22T12:50:34.168Z,25.10
2022-08-22T12:53:09.413Z,25.10
2022-08-22T12:55:56.317Z,25.00
2022-08-22T12:58:29.443Z,25.00
2022-08-22T13:01:06.469Z,25.00
2022-08-22T13:03:56.511Z,25.10
2022-08-22T13:06:35.619Z,25.10
2022-08-22T13:09:19.895Z,25.10
2022-08-22T13:12:02.419Z,25.10
2022-08-22T13:14:33.873Z,25.00
2022-08-22T13:17:10.190Z,25.10
2022-08-22T13:20:20.271Z,25.10
2022-08-22T13:22:47.359Z,25.10
2022-08-22T13:25:29.257Z,25.10
2022-08-22T13:28:04.302Z,25.10
2022-08-22T13:30:37.326Z,25.10
2022-08-22T13:33:15.549Z,25.10
2022-08-22T13:35:52.147Z,25.10
2022-08-22T13:38:32.172Z,25.10
2022-08-22T13:41:02.097Z,25.20
2022-08-22T13:43:33.771Z,25.30
2022-08-22T13:46:04.848Z,25.30
2022-08-22T13:48:56.659Z,25.30
2022-08-22T13:51:40.126Z,25.30
2022-08-22T13:54:10.821Z,25.20
2022-08-22T13:57:02.692Z,25.30
2022-08-22T13:59:52.440Z,25.40
2022-08-22T14:02:48.440Z,25.50
2022-08-22T14:05:27.830Z,25.70
2022-08-22T14:08:12.940Z,25.70
2022-08-22T14:10:45.916Z,25.70
2022-08-22T14:13:43.507Z,25.70
2022-08-22T14:16:25.705Z,25.50
2022-08-22T14:19:00.476Z,25.40
2022-08-22T14:21:41.976Z,25.40
2022-08-22T14:24:31.675Z,25.40
2022-08-22T14:27:09.521Z,25.30
2022-08-22T14:29:50.452Z,25.30
2022-08-22T14:32:26.731Z,25.30
2022-08-22T14:35:21.695Z,25.30
2022-08-22T14:37:56.219Z,25.20
2022-08-22T14:40:30.792Z,25.20
2022-08-22T14:43:22.477Z,25.30
2022-08-22T14:46:14.356Z,25.20
2022-08-22T14:49:20.720Z,25.20
2022-08-22T14:51:59.266Z,25.20
2022-08-22T14:54:29.635Z,25.20
2022-08-22T14:56:59.043Z,25.30
2022-08-22T14:59:34.607Z,25.30
2022-08-22T15:02:14.310Z,25.30
2022-08-22T15:04:45.475Z,25.30
2022-08-22T15:07:26.313Z,25.20
2022-08-22T15:10:03.114Z,25.20
2022-08-22T15:12:45.014Z,25.20
2022-08-22T15:15:33.333Z,25.20
2022-08-22T15:18:39.854Z,25.20
2022-08-22T15:21:29.009Z,25.30
2022-08-22T15:24:01.309Z,25.30
2022-08-22T15:26:32.387Z,25.30
2022-08-22T15:29:20.602Z,25.30
2022-08-22T15:31:51.978Z,25.20
2022-08-22T15:34:44.268Z,25.20
2022-08-22T15:37:20.320Z,25.20
2022-08-22T15:40:11.627Z,25.20
2022-08-22T15:42:50.982Z,25.20
2022-08-22T15:45:39.092Z,25.30
2022-08-22T15:48:25.580Z,25.30
2022-08-22T15:51:01.628Z,25.30
2022-08-22T15:53:59.609Z,25.30
2022-08-22T15:56:38.784Z,25.20
2022-08-22T15:59:17.385Z,25.20
2022-08-22T16:01:52.470Z,25.20
2022-08-22T16:04:51.740Z,25.20
2022-08-22T16:07:36.941Z,25.20
2022-08-22T16:10:27.709Z,25.30
2022-08-22T16:13:15.610Z,25.30
2022-08-22T16:15:51.495Z,25.20
2022-08-22T16:18:35.206Z,25.30
2022-08-22T16:21:02.940Z,25.20
2022-08-22T16:23:53.912Z,25.30
2022-08-22T16:26:30.937Z,25.20
2022-08-22T16:29:04.097Z,25.30
2022-08-22T16:31:36.245Z,25.30
2022-08-22T16:34:18.275Z,25.30
2022-08-22T16:37:03.261Z,25.40
2022-08-22T16:39:36.217Z,25.40
2022-08-22T16:42:24.013Z,25.40
2022-08-22T16:45:17.573Z,25.30
2022-08-22T16:47:58.522Z,25.40
2022-08-22T16:50:27.955Z,25.30
2022-08-22T16:53:07.458Z,25.40
2022-08-22T16:55:55.326Z,25.40
2022-08-22T16:58:57.517Z,25.40
2022-08-22T17:01:37.817Z,25.40
2022-08-22T17:04:20.128Z,25.40
2022-08-22T17:06:47.405Z,25.40
2022-08-22T17:09:26.037Z,25.40
2022-08-22T17:12:30.515Z,25.40
2022-08-22T17:15:15.456Z,25.40
2022-08-22T17:18:13.407Z,25.40
2022-08-22T17:20:54.816Z,25.50
2022-08-22T17:23:55.424Z,25.40
2022-08-22T17:26:45.166Z,25.40
2022-08-22T17:29:17.939Z,25.40
2022-08-22T17:32:14.157Z,25.40
2022-08-22T17:34:56.874Z,25.40
2022-08-22T17:37:54.964Z,25.40
2022-08-22T17:40:56.500Z,25.40
2022-08-22T17:43:48.761Z,25.50
2022-08-22T17:46:46.751Z,25.50
2022-08-22T17:49:28.633Z,25.40
2022-08-22T17:52:29.769Z,25.40
2022-08-22T17:55:12.369Z,25.40
2022-08-22T17:57:53.363Z,25.40
2022-08-22T18:00:34.440Z,25.40
2022-08-22T18:03:22.549Z,25.40
2022-08-22T18:05:58.261Z,25.40
2022-08-22T18:08:37.985Z,25.50
2022-08-22T18:11:16.239Z,25.50
2022-08-22T18:13:55.086Z,25.50
2022-08-22T18:16:47.463Z,25.50
2022-08-22T18:19:23.398Z,25.50
2022-08-22T18:21:56.271Z,25.40
2022-08-22T18:24:34.648Z,25.40
2022-08-22T18:27:34.292Z,25.50
2022-08-22T18:30:25.226Z,25.50
2022-08-22T18:33:07.093Z,25.50
2022-08-22T18:35:40.289Z,25.50
2022-08-22T18:38:28.949Z,25.50
2022-08-22T18:41:11.863Z,25.50
2022-08-22T18:43:44.413Z,25.50
2022-08-22T18:46:33.258Z,25.50
2022-08-22T18:49:21.850Z,25.50
2022-08-22T18:52:14.882Z,25.50
2022-08-22T18:55:05.773Z,25.50
2022-08-22T18:57:54.645Z,25.60
2022-08-22T19:00:59.956Z,25.50
2022-08-22T19:03:32.389Z,25.60
2022-08-22T19:06:28.282Z,25.60
2022-08-22T19:09:21.962Z,25.60
2022-08-22T19:12:04.120Z,25.70
2022-08-22T19:14:51.983Z,25.60
2022-08-22T19:17:28.086Z,25.60
2022-08-22T19:20:46.739Z,25.60
2022-08-22T19:23:32.209Z,25.60
2022-08-22T19:26:23.974Z,25.60
2022-08-22T19:29:16.561Z,25.60
2022-08-22T19:31:52.454Z,25.60
2022-08-22T19:34:34.931Z,25.60
2022-08-22T19:37:31.901Z,25.60
2022-08-22T19:40:05.015Z,25.60
2022-08-22T19:42:35.326Z,25.60
2022-08-22T19:45:09.376Z,25.70
2022-08-22T19:48:00.836Z,25.60
2022-08-22T19:50:35.432Z,25.60
2022-08-22T19:53:32.779Z,25.60
2022-08-22T19:56:26.937Z,25.60
2022-08-22T19:59:12.172Z,25.60
2022-08-22T20:01:56.525Z,25.60
2022-08-22T20:04:40.629Z,25.60
2022-08-22T20:07:34.101Z,25.60
2022-08-22T20:10:40.596Z,25.60
2022-08-22T20:13:31.177Z,25.60
2022-08-22T20:16:20.855Z,25.60
2022-08-22T20:19:07.583Z,25.60
2022-08-22T20:21:53.794Z,25.60
2022-08-22T20:24:29.230Z,25.60
2022-08-22T20:27:13.382Z,25.60
2022-08-22T20:29:46.635Z,25.60
2022-08-22T20:32:16.253Z,25.60
2022-08-22T20:34:46.498Z,25.60
2022-08-22T20:40:54.517Z,25.60
2022-08-22T20:43:31.037Z,25.60
2022-08-22T20:46:03.409Z,25.60
2022-08-22T20:48:39.323Z,25.60
2022-08-22T20:51:07.691Z,25.60
2022-08-22T20:53:34.958Z,25.60
2022-08-22T20:56:03.240Z,25.60
2022-08-22T20:58:40.106Z,25.60
2022-08-22T21:01:10.062Z,25.60
2022-08-22T21:03:47.266Z,25.50
2022-08-22T21:06:29.333Z,25.60
2022-08-22T21:09:30.113Z,25.60
2022-08-22T21:11:59.645Z,25.60
2022-08-22T21:14:31.364Z,25.70
2022-08-22T21:16:58.107Z,25.60
2022-08-22T21:19:29.383Z,25.60
2022-08-22T21:22:14.019Z,25.60
2022-08-22T21:24:41.567Z,25.60
2022-08-22T21:27:08.880Z,25.50
2022-08-22T21:29:44.013Z,25.60
2022-08-22T21:32:13.671Z,25.50
2022-08-22T21:34:46.270Z,25.60
2022-08-22T21:37:16.381Z,25.50
2022-08-22T21:39:49.763Z,25.50
2022-08-22T21:42:38.480Z,25.50
2022-08-22T21:45:11.819Z,25.60
2022-08-22T21:47:41.478Z,25.50
2022-08-22T21:50:20.356Z,25.50
2022-08-22T21:52:56.741Z,25.50
2022-08-22T21:55:55.840Z,25.50
2022-08-22T21:58:35.562Z,25.50
2022-08-22T22:01:22.182Z,25.50
2022-08-22T22:03:51.620Z,25.50
2022-08-22T22:06:18.382Z,25.50
2022-08-22T22:08:45.201Z,25.50
2022-08-22T22:11:14.283Z,25.40
2022-08-22T22:13:41.325Z,25.40
2022-08-22T22:16:11.927Z,25.50
2022-08-22T22:18:39.333Z,25.50
2022-08-22T22:21:06.135Z,25.50
2022-08-22T22:23:32.878Z,25.50
2022-08-22T22:26:02.495Z,25.50
2022-08-22T22:28:32.492Z,25.50
2022-08-22T22:30:59.502Z,25.50
2022-08-22T22:33:32.348Z,25.50
2022-08-22T22:36:04.837Z,25.50
2022-08-22T22:38:31.590Z,25.40
2022-08-22T22:40:58.355Z,25.40
2022-08-22T22:43:26.119Z,25.40
2022-08-22T22:45:55.108Z,25.40
2022-08-22T22:48:24.035Z,25.40
2022-08-22T22:50:55.076Z,25.40
2022-08-22T22:53:33.858Z,25.40
2022-08-22T22:56:12.617Z,25.30
2022-08-22T22:58:40.537Z,25.40
2022-08-22T23:01:13.815Z,25.40
2022-08-22T23:03:40.687Z,25.40
2022-08-22T23:06:20.425Z,25.40
2022-08-22T23:08:48.387Z,25.40
2022-08-22T23:11:18.885Z,25.30
2022-08-22T23:13:48.103Z,25.30
2022-08-22T23:16:18.433Z,25.20
2022-08-22T23:18:45.951Z,25.20
2022-08-22T23:21:32.989Z,25.30
2022-08-22T23:24:00.190Z,25.30
2022-08-22T23:26:28.153Z,25.40
2022-08-22T23:28:55.016Z,25.30
2022-08-22T23:31:31.305Z,25.30
2022-08-22T23:34:12.368Z,25.30
2022-08-22T23:36:41.304Z,25.30
2022-08-22T23:39:09.492Z,25.20
2022-08-22T23:41:36.990Z,25.30
2022-08-22T23:44:06.666Z,25.20
2022-08-22T23:46:36.181Z,25.30
2022-08-22T23:49:04.878Z,25.30
2022-08-22T23:51:32.001Z,25.20
2022-08-22T23:53:59.433Z,25.20
2022-08-22T23:56:33.185Z,25.20
2022-08-22T23:59:03.871Z,25.30
